createdAt,value
2018-11-13T00:00:21.452Z,87.23
2018-11-13T00:02:50.885Z,83.97
2018-11-13T00:05:19.772Z,86.47
2018-11-13T00:07:48.455Z,80.10
2018-11-13T00:10:17.127Z,91.03
2018-11-13T00:12:45.849Z,82.93
2018-11-13T00:15:14.593Z,90.53
2018-11-13T00:17:43.355Z,87.20
2018-11-13T00:20:14.525Z,86.10
2018-11-13T00:22:43.845Z,82.00
2018-11-13T00:25:14.718Z,83.57
2018-11-13T00:27:43.959Z,78.20
2018-11-13T00:30:15.698Z,83.57
2018-11-13T00:32:44.830Z,89.33
2018-11-13T00:35:14.485Z,75.83
2018-11-13T00:37:43.604Z,77.87
2018-11-13T00:40:13.182Z,74.50
2018-11-13T00:42:42.949Z,70.87
2018-11-13T00:45:11.687Z,69.63
2018-11-13T00:47:40.418Z,70.27
2018-11-13T00:50:10.797Z,70.53
2018-11-13T00:52:39.518Z,75.03
2018-11-13T00:55:08.454Z,68.47
2018-11-13T00:57:37.329Z,74.73
2018-11-13T01:00:14.197Z,74.20
2018-11-13T01:02:43.103Z,71.13
2018-11-13T01:05:13.575Z,69.07
2018-11-13T01:07:43.144Z,69.30
2018-11-13T01:10:13.410Z,69.73
2018-11-13T01:12:42.913Z,68.33
2018-11-13T01:15:13.326Z,65.13
2018-11-13T01:17:42.716Z,68.50
2018-11-13T01:20:11.489Z,64.90
2018-11-13T01:22:40.249Z,68.23
2018-11-13T01:25:10.145Z,62.50
2018-11-13T01:27:38.887Z,65.60
2018-11-13T01:30:10.767Z,65.33
2018-11-13T01:32:40.584Z,65.97
2018-11-13T01:35:11.802Z,65.87
2018-11-13T01:37:40.550Z,67.17
2018-11-13T01:40:10.787Z,65.70
2018-11-13T01:42:39.781Z,65.90
2018-11-13T01:45:10.154Z,65.73
2018-11-13T01:47:38.976Z,68.20
2018-11-13T01:50:08.262Z,65.77
2018-11-13T01:52:37.396Z,62.03
2018-11-13T01:55:07.733Z,65.03
2018-11-13T01:57:36.578Z,67.03
2018-11-13T02:00:16.793Z,63.60
2018-11-13T02:02:46.822Z,65.73
2018-11-13T02:05:15.709Z,61.87
2018-11-13T02:07:44.399Z,65.33
2018-11-13T02:10:13.056Z,58.50
2018-11-13T02:12:41.834Z,58.67
2018-11-13T02:15:10.721Z,59.67
2018-11-13T02:17:39.548Z,59.93
2018-11-13T02:20:15.619Z,56.77
2018-11-13T02:22:44.592Z,55.67
2018-11-13T02:25:14.721Z,69.43
2018-11-13T02:27:43.756Z,57.30
2018-11-13T02:30:14.561Z,62.13
2018-11-13T02:32:43.801Z,58.40
2018-11-13T02:35:13.007Z,58.43
2018-11-13T02:37:41.860Z,57.90
2018-11-13T02:40:10.692Z,56.17
2018-11-13T02:42:39.575Z,58.87
2018-11-13T02:45:10.381Z,59.73
2018-11-13T02:47:39.264Z,60.63
2018-11-13T02:50:09.726Z,55.83
2018-11-13T02:52:39.088Z,60.60
2018-11-13T02:55:08.245Z,56.23
2018-11-13T02:57:36.965Z,56.97
2018-11-13T03:00:14.739Z,60.50
2018-11-13T03:02:43.484Z,56.30
2018-11-13T03:05:14.665Z,55.70
2018-11-13T03:07:43.438Z,53.57
2018-11-13T03:10:13.831Z,57.43
2018-11-13T03:12:42.601Z,53.17
2018-11-13T03:15:12.688Z,51.73
2018-11-13T03:17:41.473Z,54.00
2018-11-13T03:20:12.620Z,55.23
2018-11-13T03:22:41.844Z,56.60
2018-11-13T03:25:13.136Z,56.37
2018-11-13T03:27:41.850Z,54.30
2018-11-13T03:30:16.317Z,56.63
2018-11-13T03:32:45.378Z,49.97
2018-11-13T03:35:14.185Z,51.87
2018-11-13T03:37:43.072Z,47.03
2018-11-13T03:40:12.625Z,50.17
2018-11-13T03:42:41.990Z,53.80
2018-11-13T03:45:11.704Z,53.00
2018-11-13T03:47:40.440Z,56.40
2018-11-13T03:50:14.466Z,51.23
2018-11-13T03:52:43.639Z,52.50
2018-11-13T03:55:13.025Z,54.27
2018-11-13T03:57:42.638Z,58.73
2018-11-13T04:00:13.804Z,53.60
2018-11-13T04:02:42.713Z,49.93
2018-11-13T04:05:13.503Z,50.20
2018-11-13T04:07:43.472Z,52.93
2018-11-13T04:10:13.409Z,51.67
2018-11-13T04:12:42.357Z,46.87
2018-11-13T04:15:12.924Z,50.27
2018-11-13T04:17:41.692Z,46.40
2018-11-13T04:20:12.401Z,51.40
2018-11-13T04:22:41.430Z,47.77
2018-11-13T04:25:10.262Z,49.70
2018-11-13T04:27:39.034Z,49.60
2018-11-13T04:30:12.505Z,49.73
2018-11-13T04:32:41.704Z,49.43
2018-11-13T04:35:12.150Z,53.87
2018-11-13T04:37:40.867Z,49.70
2018-11-13T04:40:14.037Z,51.87
2018-11-13T04:42:44.181Z,48.30
2018-11-13T04:45:14.280Z,46.70
2018-11-13T04:47:43.876Z,50.50
2018-11-13T04:50:14.023Z,49.97
2018-11-13T04:52:43.108Z,47.23
2018-11-13T04:55:12.365Z,46.73
2018-11-13T04:57:42.049Z,43.73
2018-11-13T05:00:13.073Z,48.63
2018-11-13T05:02:42.477Z,49.47
2018-11-13T05:05:12.464Z,49.17
2018-11-13T05:07:41.493Z,47.63
2018-11-13T05:10:12.267Z,48.00
2018-11-13T05:12:42.254Z,47.83
2018-11-13T05:15:11.285Z,46.80
2018-11-13T05:17:40.925Z,48.77
2018-11-13T05:20:10.766Z,47.70
2018-11-13T05:22:39.509Z,48.50
2018-11-13T05:25:10.563Z,60.30
2018-11-13T05:27:39.505Z,43.47
2018-11-13T05:30:11.643Z,51.10
2018-11-13T05:32:40.474Z,48.97
2018-11-13T05:35:11.828Z,51.17
2018-11-13T05:37:41.439Z,44.03
2018-11-13T05:40:12.541Z,49.80
2018-11-13T05:42:41.213Z,50.10
2018-11-13T05:45:11.545Z,47.53
2018-11-13T05:47:40.346Z,47.63
2018-11-13T05:50:11.023Z,53.70
2018-11-13T05:52:40.133Z,48.00
2018-11-13T05:55:09.345Z,42.07
2018-11-13T05:57:38.159Z,50.57
2018-11-13T06:00:14.712Z,50.80
2018-11-13T06:02:43.449Z,52.10
2018-11-13T06:05:12.745Z,53.87
2018-11-13T06:07:41.586Z,62.93
2018-11-13T06:10:11.361Z,62.27
2018-11-13T06:12:40.090Z,73.27
2018-11-13T06:15:09.133Z,79.60
2018-11-13T06:17:37.753Z,74.40
2018-11-13T06:20:08.333Z,72.40
2018-11-13T06:22:37.045Z,75.93
2018-11-13T06:25:06.763Z,73.00
2018-11-13T06:27:35.530Z,77.60
2018-11-13T06:30:08.267Z,72.27
2018-11-13T06:32:36.983Z,73.30
2018-11-13T06:35:05.873Z,77.27
2018-11-13T06:37:34.605Z,71.63
2018-11-13T06:40:03.416Z,67.33
2018-11-13T06:42:32.089Z,74.73
2018-11-13T06:45:00.789Z,67.37
2018-11-13T06:47:29.500Z,70.87
2018-11-13T06:49:58.257Z,68.77
2018-11-13T06:52:27.078Z,67.37
2018-11-13T06:55:14.740Z,73.80
2018-11-13T06:57:44.086Z,75.17
2018-11-13T07:00:12.764Z,73.27
2018-11-13T07:02:41.390Z,75.60
2018-11-13T07:05:11.982Z,75.40
2018-11-13T07:10:40.309Z,76.53
2018-11-13T07:13:08.981Z,72.57
2018-11-13T07:15:37.766Z,76.90
2018-11-13T07:18:06.503Z,79.80
2018-11-13T07:20:35.849Z,78.00
2018-11-13T07:23:04.580Z,76.67
2018-11-13T07:25:33.581Z,73.70
2018-11-13T07:28:02.384Z,77.97
2018-11-13T07:30:31.040Z,73.20
2018-11-13T07:32:59.857Z,75.50
2018-11-13T07:35:28.572Z,71.77
2018-11-13T07:37:59.951Z,71.07
2018-11-13T07:40:28.751Z,72.70
2018-11-13T07:42:57.538Z,70.77
2018-11-13T07:45:26.230Z,69.27
2018-11-13T07:47:55.188Z,70.30
2018-11-13T07:50:24.230Z,77.43
2018-11-13T07:52:52.950Z,69.53
2018-11-13T07:55:21.821Z,78.37
2018-11-13T07:57:50.497Z,69.87
2018-11-13T08:00:20.982Z,67.33
2018-11-13T08:02:50.984Z,68.10
2018-11-13T08:05:19.678Z,67.57
2018-11-13T08:07:48.442Z,74.10
